aviador You're here:

LEAM Decoded Metar

ALMERIA in SPAIN
Report Time2018-07-20 06:30:00
UTC Time2018-07-20 06:45:08
Flight Rules vfr VFR
WindVRB at 01 kt
Visibility9999 m
Phenomena:N/A
Clouds:Few 007 Hf
Expected CloudBase > 800 ft AGL from Temp-Dew spread
CeilingNone
Temp22°C (ISA +7)
Dew Point20°C (88% RH)
QNH1013 hPa
Density Alt1,211 ft
Elevation69 ft
Report Wrong Elevation
Raw Report
LEAM 200630Z VRB01KT 9999 FEW007 22/20 Q1013=

Extra information for LEAM:More info

Metar Taf Metar & Taf Last 4 Metars F.Rules Stats Wind Profile Meteogram Temp Stats Airport Information Weather charts Add Link Nearby VenuesMetar ALERT Operation Metar Decoded Social comments